createdAt,value
2018-08-28T00:01:24.873Z,16.83
2018-08-28T00:03:53.928Z,15.50
2018-08-28T00:06:22.604Z,21.03
2018-08-28T00:08:51.843Z,19.23
2018-08-28T00:11:20.425Z,17.63
2018-08-28T00:13:48.838Z,17.33
2018-08-28T00:16:17.591Z,18.20
2018-08-28T00:18:46.009Z,16.40
2018-08-28T00:21:14.407Z,13.80
2018-08-28T00:23:43.032Z,13.50
2018-08-28T00:26:11.416Z,19.13
2018-08-28T00:28:39.812Z,21.07
2018-08-28T00:31:08.260Z,13.97
2018-08-28T00:33:36.646Z,16.13
2018-08-28T00:36:05.234Z,19.73
2018-08-28T00:38:33.623Z,24.47
2018-08-28T00:41:02.040Z,16.50
2018-08-28T00:43:30.445Z,16.83
2018-08-28T00:45:58.845Z,16.20
2018-08-28T00:48:27.422Z,17.07
2018-08-28T00:50:55.823Z,17.00
2018-08-28T00:53:24.565Z,23.50
2018-08-28T00:55:52.968Z,16.57
2018-08-28T00:58:21.356Z,20.17
2018-08-28T01:00:49.867Z,14.50
2018-08-28T01:03:18.508Z,15.80
2018-08-28T01:05:46.885Z,11.83
2018-08-28T01:08:15.257Z,18.17
2018-08-28T01:10:43.796Z,19.40
2018-08-28T01:13:12.214Z,18.13
2018-08-28T01:15:40.612Z,18.77
2018-08-28T01:18:09.020Z,15.73
2018-08-28T01:20:37.404Z,22.83
2018-08-28T01:23:05.972Z,17.00
2018-08-28T01:25:34.377Z,23.07
2018-08-28T01:28:02.783Z,19.17
2018-08-28T01:30:34.439Z,18.87
2018-08-28T01:33:04.744Z,18.90
2018-08-28T01:35:33.345Z,17.70
2018-08-28T01:38:01.772Z,18.50
2018-08-28T01:40:30.595Z,16.80
2018-08-28T01:42:59.514Z,20.73
2018-08-28T01:45:28.167Z,23.90
2018-08-28T01:47:56.571Z,14.10
2018-08-28T01:50:24.989Z,16.80
2018-08-28T01:52:53.372Z,20.80
2018-08-28T01:55:21.778Z,21.90
2018-08-28T01:57:50.172Z,19.63
2018-08-28T02:00:18.609Z,25.13
2018-08-28T02:02:47.016Z,21.17
2018-08-28T02:05:15.400Z,17.00
2018-08-28T02:07:43.816Z,12.90
2018-08-28T02:10:12.244Z,23.47
2018-08-28T02:12:40.635Z,14.40
2018-08-28T02:15:09.156Z,15.70
2018-08-28T02:17:38.113Z,26.33
2018-08-28T02:20:06.548Z,21.27
2018-08-28T02:22:34.946Z,22.27
2018-08-28T02:25:03.394Z,17.17
2018-08-28T02:27:31.796Z,15.83
2018-08-28T02:30:00.224Z,22.30
2018-08-28T02:32:28.786Z,15.97
2018-08-28T02:34:57.465Z,20.40
2018-08-28T02:37:26.645Z,21.70
2018-08-28T02:39:55.044Z,18.97
2018-08-28T02:42:23.475Z,17.93
2018-08-28T02:44:52.432Z,21.13
2018-08-28T02:47:20.816Z,17.37
2018-08-28T02:49:49.708Z,16.60
2018-08-28T02:52:18.093Z,25.17
2018-08-28T02:54:46.484Z,20.20
2018-08-28T02:57:14.883Z,20.60
2018-08-28T02:59:43.279Z,24.40
2018-08-28T03:02:11.700Z,22.13
2018-08-28T03:04:40.084Z,17.80
2018-08-28T03:07:08.635Z,21.80
2018-08-28T03:09:37.253Z,19.47
2018-08-28T03:12:05.689Z,22.10
2018-08-28T03:14:34.101Z,29.40
2018-08-28T03:17:02.704Z,26.73
2018-08-28T03:19:31.105Z,25.43
2018-08-28T03:21:59.656Z,24.57
2018-08-28T03:24:28.061Z,21.03
2018-08-28T03:26:56.532Z,16.73
2018-08-28T03:29:24.917Z,16.67
2018-08-28T03:31:53.573Z,18.80
2018-08-28T03:34:21.953Z,16.97
2018-08-28T03:36:50.337Z,17.70
2018-08-28T03:39:18.742Z,21.40
2018-08-28T03:41:47.121Z,24.97
2018-08-28T03:44:15.510Z,21.10
2018-08-28T03:46:44.016Z,22.37
2018-08-28T03:49:12.414Z,19.77
2018-08-28T03:51:40.793Z,16.47
2018-08-28T03:54:09.381Z,17.40
2018-08-28T03:56:37.781Z,19.83
2018-08-28T03:59:06.173Z,24.53
2018-08-28T04:01:34.592Z,18.30
2018-08-28T04:04:04.000Z,21.10
2018-08-28T04:06:32.424Z,20.60
2018-08-28T04:09:00.853Z,13.97
2018-08-28T04:11:29.234Z,15.57
2018-08-28T04:13:57.832Z,18.50
2018-08-28T04:16:26.231Z,18.20
2018-08-28T04:18:54.630Z,18.53
2018-08-28T04:21:23.216Z,22.33
2018-08-28T04:23:51.610Z,18.07
2018-08-28T04:26:19.989Z,20.87
2018-08-28T04:28:48.395Z,17.10
2018-08-28T04:31:16.780Z,20.73
2018-08-28T04:33:45.227Z,16.17
2018-08-28T04:36:13.628Z,21.73
2018-08-28T04:38:42.040Z,21.00
2018-08-28T04:41:10.785Z,18.77
2018-08-28T04:43:39.209Z,18.47
2018-08-28T04:46:07.949Z,21.43
2018-08-28T04:48:36.604Z,18.07
2018-08-28T04:51:05.200Z,19.90
2018-08-28T04:53:34.610Z,16.27
2018-08-28T04:56:03.105Z,20.60
2018-08-28T04:58:31.549Z,19.10
2018-08-28T05:00:59.957Z,24.27
2018-08-28T05:03:28.484Z,19.63
2018-08-28T05:05:56.886Z,21.83
2018-08-28T05:08:25.488Z,19.07
2018-08-28T05:10:53.893Z,23.77
2018-08-28T05:13:22.661Z,25.83
2018-08-28T05:15:51.236Z,25.57
2018-08-28T05:18:19.604Z,27.60
2018-08-28T05:20:48.020Z,22.77
2018-08-28T05:23:16.509Z,22.67
2018-08-28T05:25:44.913Z,17.30
2018-08-28T05:28:13.474Z,21.43
2018-08-28T05:30:42.110Z,21.27
2018-08-28T05:33:10.499Z,22.03
2018-08-28T05:35:38.899Z,27.43
2018-08-28T05:38:07.636Z,26.50
2018-08-28T05:40:35.972Z,18.70
2018-08-28T05:43:04.456Z,24.93
2018-08-28T05:45:33.092Z,27.30
2018-08-28T05:48:01.514Z,19.70
2018-08-28T05:50:30.336Z,22.63
2018-08-28T05:52:58.765Z,26.10
2018-08-28T05:55:27.214Z,31.60
2018-08-28T05:57:55.757Z,21.03
2018-08-28T06:00:24.201Z,22.43
2018-08-28T06:02:52.745Z,21.83
2018-08-28T06:05:21.140Z,25.30
2018-08-28T06:07:49.541Z,23.20
2018-08-28T06:10:18.295Z,22.50
2018-08-28T06:12:46.745Z,26.10
2018-08-28T06:15:15.168Z,17.90
2018-08-28T06:17:43.982Z,19.13
2018-08-28T06:20:12.373Z,16.30
2018-08-28T06:22:40.772Z,23.17
2018-08-28T06:25:09.537Z,17.93
2018-08-28T06:27:37.981Z,17.33
2018-08-28T06:30:06.446Z,15.67
2018-08-28T06:32:34.840Z,17.60
2018-08-28T06:35:03.268Z,23.00
2018-08-28T06:37:32.049Z,20.33
2018-08-28T06:40:00.496Z,19.77
2018-08-28T06:42:28.888Z,18.50
2018-08-28T06:44:57.452Z,18.00
2018-08-28T06:47:25.855Z,16.67
2018-08-28T06:49:54.255Z,17.03
2018-08-28T06:52:22.813Z,15.40
2018-08-28T06:54:51.204Z,17.57
2018-08-28T06:57:19.604Z,10.30
2018-08-28T06:59:48.075Z,11.00
2018-08-28T07:02:16.547Z,11.30
2018-08-28T07:04:45.247Z,14.53
2018-08-28T07:07:13.674Z,13.57
2018-08-28T07:09:42.141Z,9.30
2018-08-28T07:12:10.854Z,13.40
2018-08-28T07:14:39.249Z,14.73
2018-08-28T07:17:07.824Z,11.03
2018-08-28T07:19:36.632Z,9.97
2018-08-28T07:22:05.272Z,13.20
2018-08-28T07:24:33.672Z,9.97
2018-08-28T07:27:02.087Z,14.30
2018-08-28T07:29:30.488Z,12.77
2018-08-28T07:31:59.141Z,10.40
2018-08-28T07:34:27.553Z,8.57
2018-08-28T07:36:56.117Z,10.30
2018-08-28T07:39:24.551Z,10.80
2018-08-28T07:41:52.979Z,10.40
2018-08-28T07:44:21.928Z,9.83
2018-08-28T07:46:50.508Z,8.50
2018-08-28T07:49:18.892Z,11.63
2018-08-28T07:51:47.556Z,8.80
2018-08-28T07:54:16.164Z,13.00
2018-08-28T07:56:44.549Z,7.40
2018-08-28T07:59:12.940Z,11.60
2018-08-28T08:01:41.384Z,11.17
2018-08-28T08:04:09.904Z,15.10
2018-08-28T08:06:38.461Z,11.03
2018-08-28T08:09:08.977Z,12.50
2018-08-28T08:11:37.904Z,11.13
2018-08-28T08:14:06.345Z,8.37
2018-08-28T08:16:34.900Z,11.70
2018-08-28T08:19:03.382Z,12.67
2018-08-28T08:21:31.841Z,12.87
2018-08-28T08:24:00.484Z,13.23
2018-08-28T08:26:28.893Z,12.30
2018-08-28T08:28:57.269Z,9.57
2018-08-28T08:31:25.692Z,13.50
2018-08-28T08:33:54.178Z,11.40
2018-08-28T08:36:22.648Z,9.97
2018-08-28T08:38:51.060Z,9.43
2018-08-28T08:41:19.493Z,10.93
2018-08-28T08:43:47.892Z,11.97
2018-08-28T08:46:16.520Z,10.23
2018-08-28T08:48:44.911Z,12.53
2018-08-28T08:51:13.296Z,7.17
2018-08-28T08:53:41.952Z,10.23
2018-08-28T08:56:10.354Z,10.43
2018-08-28T08:58:38.757Z,9.10
2018-08-28T09:01:07.243Z,11.00
2018-08-28T09:03:35.636Z,12.90
2018-08-28T09:06:04.309Z,9.87
2018-08-28T09:08:32.753Z,12.50
2018-08-28T09:11:01.171Z,10.80
2018-08-28T09:13:29.960Z,9.30
2018-08-28T09:15:58.330Z,13.20
2018-08-28T09:18:26.876Z,11.87
2018-08-28T09:20:55.404Z,13.03
2018-08-28T09:23:23.786Z,10.63
2018-08-28T09:25:52.193Z,16.40
2018-08-28T09:28:20.590Z,9.97
2018-08-28T09:30:49.001Z,10.70
2018-08-28T09:33:17.489Z,10.87
2018-08-28T09:35:45.877Z,9.90
2018-08-28T09:38:14.432Z,10.13
2018-08-28T09:40:43.292Z,13.30
2018-08-28T09:43:11.685Z,9.90
2018-08-28T09:45:40.338Z,13.27
2018-08-28T09:48:08.815Z,10.00
2018-08-28T09:50:37.175Z,15.33
2018-08-28T09:53:05.643Z,11.10
2018-08-28T09:55:34.068Z,11.43
2018-08-28T09:58:02.468Z,9.03
2018-08-28T10:00:30.959Z,9.53
2018-08-28T10:02:59.654Z,8.63
2018-08-28T10:05:28.083Z,10.23
2018-08-28T10:07:56.582Z,10.07
2018-08-28T10:10:24.881Z,9.23
2018-08-28T10:12:53.307Z,8.63
2018-08-28T10:15:21.701Z,10.20
2018-08-28T10:17:50.081Z,12.20
2018-08-28T10:20:18.484Z,7.90
2018-08-28T10:22:46.944Z,8.03
2018-08-28T10:25:15.341Z,9.90
2018-08-28T10:27:43.788Z,9.67
2018-08-28T10:30:12.258Z,11.00
2018-08-28T10:32:40.933Z,11.03
2018-08-28T10:35:09.360Z,9.43
2018-08-28T10:37:38.018Z,10.10
2018-08-28T10:40:06.574Z,9.63
2018-08-28T10:42:34.965Z,11.80
2018-08-28T10:45:03.662Z,9.93
2018-08-28T10:47:32.084Z,13.23
2018-08-28T10:50:00.489Z,15.00
2018-08-28T10:52:29.183Z,8.23
2018-08-28T10:54:57.586Z,9.30
2018-08-28T10:57:25.996Z,10.33
2018-08-28T10:59:54.417Z,10.70
2018-08-28T11:02:22.934Z,10.20
2018-08-28T11:04:51.365Z,13.40
2018-08-28T11:07:19.828Z,8.80
2018-08-28T11:09:48.303Z,13.23
2018-08-28T11:12:16.701Z,11.20
2018-08-28T11:14:45.261Z,11.20
2018-08-28T11:17:13.749Z,11.77
2018-08-28T11:19:42.145Z,11.77
2018-08-28T11:22:10.952Z,11.90
2018-08-28T11:24:39.389Z,11.40
2018-08-28T11:27:08.233Z,10.20
2018-08-28T11:29:36.694Z,12.93
2018-08-28T11:32:05.197Z,13.87
2018-08-28T11:34:33.624Z,10.73
2018-08-28T11:37:02.053Z,14.80
2018-08-28T11:39:30.549Z,9.83
2018-08-28T11:41:59.225Z,16.40
2018-08-28T11:44:27.653Z,10.83
2018-08-28T11:46:56.066Z,16.00
2018-08-28T11:49:24.660Z,9.13
2018-08-28T11:51:53.054Z,14.40
2018-08-28T11:54:21.470Z,12.50
2018-08-28T11:56:49.894Z,12.27
2018-08-28T11:59:18.334Z,16.63
2018-08-28T12:01:46.774Z,11.00
2018-08-28T12:04:15.337Z,10.13
2018-08-28T12:06:43.777Z,11.57
2018-08-28T12:09:12.512Z,11.73
2018-08-28T12:11:40.936Z,14.90
2018-08-28T12:14:09.499Z,13.20
2018-08-28T12:16:37.921Z,15.70
2018-08-28T12:19:06.525Z,12.83
2018-08-28T12:21:34.934Z,10.90
2018-08-28T12:24:03.361Z,13.70
2018-08-28T12:26:32.042Z,16.50
2018-08-28T12:29:00.721Z,13.53
2018-08-28T12:31:29.137Z,13.33
2018-08-28T12:33:57.525Z,15.23
2018-08-28T12:36:25.924Z,13.23
2018-08-28T12:38:54.336Z,18.10
2018-08-28T12:41:22.896Z,12.27
2018-08-28T12:43:51.332Z,11.83
2018-08-28T12:46:19.750Z,11.93
2018-08-28T12:48:48.168Z,11.60
2018-08-28T12:51:16.664Z,10.77
2018-08-28T12:53:45.097Z,12.00
2018-08-28T12:56:13.541Z,16.97
2018-08-28T12:58:41.930Z,12.87
2018-08-28T13:01:10.445Z,14.43
2018-08-28T13:03:38.885Z,11.70
2018-08-28T13:06:07.397Z,17.73
2018-08-28T13:08:35.823Z,15.93
2018-08-28T13:11:04.405Z,10.30
2018-08-28T13:13:32.806Z,10.30
2018-08-28T13:16:01.237Z,14.17
2018-08-28T13:18:29.722Z,10.70
2018-08-28T13:20:58.117Z,12.23
2018-08-28T13:23:26.551Z,11.70
2018-08-28T13:25:55.061Z,11.67
2018-08-28T13:28:23.411Z,13.47
2018-08-28T13:30:51.846Z,13.37
2018-08-28T13:33:20.245Z,13.33
2018-08-28T13:35:48.661Z,12.00
2018-08-28T13:38:17.145Z,14.83
2018-08-28T13:40:45.765Z,12.73
2018-08-28T13:43:13.960Z,13.17
2018-08-28T13:45:42.396Z,14.40
2018-08-28T13:48:10.842Z,16.53
2018-08-28T13:50:39.248Z,13.37
2018-08-28T13:53:07.722Z,12.30
2018-08-28T13:55:36.525Z,11.70
2018-08-28T13:58:05.113Z,11.30
2018-08-28T14:00:33.519Z,12.67
2018-08-28T14:03:01.950Z,15.97
2018-08-28T14:05:30.377Z,15.73
2018-08-28T14:07:58.774Z,15.00
2018-08-28T14:10:27.422Z,15.03
2018-08-28T14:12:55.822Z,15.37
2018-08-28T14:15:24.333Z,13.50
2018-08-28T14:17:52.893Z,15.73
2018-08-28T14:20:21.301Z,15.73
2018-08-28T14:22:49.837Z,16.50
2018-08-28T14:25:18.616Z,9.60
2018-08-28T14:27:47.630Z,12.83
2018-08-28T14:30:16.065Z,12.20
2018-08-28T14:32:44.477Z,11.43
2018-08-28T14:35:12.895Z,18.83
2018-08-28T14:37:41.336Z,12.40
2018-08-28T14:40:09.814Z,18.60
2018-08-28T14:42:38.387Z,14.30
2018-08-28T14:45:07.438Z,10.97
2018-08-28T14:47:35.879Z,10.70
2018-08-28T14:50:05.222Z,16.73
2018-08-28T14:52:33.541Z,12.73
2018-08-28T14:55:01.974Z,8.60
2018-08-28T14:57:30.593Z,14.93
2018-08-28T14:59:59.024Z,11.70
2018-08-28T15:02:27.446Z,11.67
2018-08-28T15:04:56.044Z,15.53
2018-08-28T15:07:24.460Z,9.37
2018-08-28T15:09:52.834Z,8.87
2018-08-28T15:12:21.260Z,11.13
2018-08-28T15:14:49.700Z,9.10
2018-08-28T15:17:18.102Z,13.20
2018-08-28T15:19:46.816Z,17.07
2018-08-28T15:22:15.240Z,14.73
2018-08-28T15:24:43.670Z,15.50
2018-08-28T15:27:12.197Z,15.47
2018-08-28T15:29:40.589Z,11.57
2018-08-28T15:32:09.200Z,13.30
2018-08-28T15:34:37.620Z,11.37
2018-08-28T15:37:06.096Z,11.80
2018-08-28T15:39:34.572Z,13.63
2018-08-28T15:42:02.990Z,15.40
2018-08-28T15:44:31.420Z,16.30
2018-08-28T15:46:59.962Z,19.73
2018-08-28T15:49:28.365Z,16.27
2018-08-28T15:51:56.776Z,15.03
2018-08-28T15:54:25.366Z,16.10
2018-08-28T15:56:53.788Z,9.73
2018-08-28T15:59:22.217Z,12.93
2018-08-28T16:01:50.884Z,12.73
2018-08-28T16:04:19.982Z,14.40
2018-08-28T16:06:50.177Z,15.27
2018-08-28T16:09:18.695Z,11.83
2018-08-28T16:11:47.737Z,11.40
2018-08-28T16:14:16.171Z,16.07
2018-08-28T16:16:45.753Z,15.63
2018-08-28T16:19:14.289Z,12.97
2018-08-28T16:22:00.000Z,14.47
2018-08-28T16:24:28.508Z,12.43
2018-08-28T16:26:56.924Z,15.10
2018-08-28T16:29:25.361Z,13.23
2018-08-28T16:31:53.777Z,12.37
2018-08-28T16:34:22.249Z,13.10
2018-08-28T16:36:50.725Z,12.20
2018-08-28T16:39:19.157Z,13.07
2018-08-28T16:41:47.684Z,12.37
2018-08-28T16:44:16.110Z,17.67
2018-08-28T16:46:44.621Z,10.50
2018-08-28T16:49:13.598Z,19.70
2018-08-28T16:51:42.145Z,12.77
2018-08-28T16:54:10.541Z,14.00
2018-08-28T16:56:39.003Z,14.97
2018-08-28T16:59:07.504Z,19.30
2018-08-28T17:01:36.058Z,13.80
2018-08-28T17:04:04.495Z,14.43
2018-08-28T17:06:32.915Z,11.07
2018-08-28T17:09:01.481Z,12.73
2018-08-28T17:11:29.958Z,13.37
2018-08-28T17:13:58.374Z,19.03
2018-08-28T17:16:27.105Z,17.87
2018-08-28T17:18:55.521Z,20.90
2018-08-28T17:21:23.948Z,11.13
2018-08-28T17:23:52.396Z,10.33
2018-08-28T17:26:20.802Z,13.33
2018-08-28T17:28:49.488Z,13.20
2018-08-28T17:31:18.320Z,14.50
2018-08-28T17:33:46.888Z,12.60
2018-08-28T17:36:15.561Z,10.40
2018-08-28T17:38:43.979Z,11.97
2018-08-28T17:41:12.469Z,13.83
2018-08-28T17:43:41.110Z,15.93
2018-08-28T17:46:09.528Z,16.97
2018-08-28T17:48:39.656Z,16.60
2018-08-28T17:51:08.157Z,14.93
2018-08-28T17:53:36.566Z,15.60
2018-08-28T17:56:05.075Z,15.40
2018-08-28T17:58:33.673Z,25.00
2018-08-28T18:01:02.080Z,17.67
2018-08-28T18:03:30.581Z,16.50
2018-08-28T18:05:59.079Z,16.43
2018-08-28T18:08:27.531Z,17.07
2018-08-28T18:10:56.126Z,19.87
2018-08-28T18:13:24.534Z,14.40
2018-08-28T18:15:52.961Z,19.50
2018-08-28T18:18:21.526Z,17.73
2018-08-28T18:20:49.937Z,13.00
2018-08-28T18:23:18.436Z,13.00
2018-08-28T18:25:46.913Z,21.30
2018-08-28T18:28:15.340Z,14.27
2018-08-28T18:30:43.794Z,18.30
2018-08-28T18:33:12.213Z,14.83
2018-08-28T18:35:40.696Z,15.93
2018-08-28T18:38:09.261Z,15.90
2018-08-28T18:40:37.692Z,11.67
2018-08-28T18:43:06.254Z,12.00
2018-08-28T18:45:34.704Z,24.37
2018-08-28T18:48:03.124Z,13.70
2018-08-28T18:50:31.603Z,15.30
2018-08-28T18:53:00.033Z,11.17
2018-08-28T18:55:28.509Z,12.83
2018-08-28T18:57:56.921Z,21.50
2018-08-28T19:00:25.403Z,15.60
2018-08-28T19:02:53.899Z,16.80
2018-08-28T19:05:22.400Z,14.00
2018-08-28T19:07:50.911Z,15.07
2018-08-28T19:10:19.369Z,18.80
2018-08-28T19:12:48.184Z,10.70
2018-08-28T19:15:16.790Z,16.67
2018-08-28T19:17:45.224Z,14.90
2018-08-28T19:20:13.632Z,14.43
2018-08-28T19:22:42.085Z,20.37
2018-08-28T19:25:11.105Z,14.00
2018-08-28T19:27:39.509Z,15.37
2018-08-28T19:30:08.418Z,13.77
2018-08-28T19:32:36.833Z,17.87
2018-08-28T19:35:05.305Z,14.03
2018-08-28T19:37:33.790Z,17.17
2018-08-28T19:40:02.260Z,17.17
2018-08-28T19:42:30.884Z,19.10
2018-08-28T19:44:59.321Z,13.13
2018-08-28T19:47:27.869Z,17.07
2018-08-28T19:49:56.553Z,16.03
2018-08-28T19:52:25.091Z,17.70
2018-08-28T19:54:53.562Z,14.40
2018-08-28T19:57:21.981Z,17.13
2018-08-28T19:59:50.409Z,22.93
2018-08-28T20:02:18.842Z,19.80
2018-08-28T20:04:47.305Z,16.77
2018-08-28T20:07:15.858Z,13.20
2018-08-28T20:09:44.558Z,20.40
2018-08-28T20:12:13.029Z,17.17
2018-08-28T20:14:41.546Z,17.43
2018-08-28T20:17:10.005Z,14.97
2018-08-28T20:19:38.425Z,16.37
2018-08-28T20:22:09.156Z,16.77
2018-08-28T20:24:37.576Z,17.60
2018-08-28T20:27:06.486Z,23.03
2018-08-28T20:29:35.046Z,17.33
2018-08-28T20:32:03.542Z,14.50
2018-08-28T20:34:31.885Z,14.33
2018-08-28T20:37:00.404Z,18.57
2018-08-28T20:39:28.810Z,15.47
2018-08-28T20:41:57.327Z,15.67
2018-08-28T20:44:25.763Z,17.07
2018-08-28T20:46:54.198Z,13.93
2018-08-28T20:49:22.636Z,15.13
2018-08-28T20:51:51.125Z,19.47
2018-08-28T20:54:19.689Z,16.43
2018-08-28T20:56:48.121Z,18.97
2018-08-28T20:59:16.544Z,18.60
2018-08-28T21:01:45.006Z,15.70
2018-08-28T21:04:13.418Z,16.60
2018-08-28T21:06:41.814Z,16.83
2018-08-28T21:09:10.250Z,15.10
2018-08-28T21:11:38.827Z,14.77
2018-08-28T21:14:07.425Z,15.50
2018-08-28T21:16:35.837Z,13.90
2018-08-28T21:19:04.292Z,19.30
2018-08-28T21:21:32.709Z,15.40
2018-08-28T21:24:01.158Z,21.10
2018-08-28T21:26:29.669Z,15.73
2018-08-28T21:28:58.078Z,15.43
2018-08-28T21:31:26.541Z,15.13
2018-08-28T21:33:54.956Z,19.83
2018-08-28T21:36:23.392Z,24.57
2018-08-28T21:38:51.813Z,14.13
2018-08-28T21:41:20.680Z,14.80
2018-08-28T21:43:49.122Z,15.97
2018-08-28T21:46:17.540Z,19.80
2018-08-28T21:48:45.940Z,16.00
2018-08-28T21:51:14.389Z,16.70
2018-08-28T21:53:42.804Z,14.90
2018-08-28T21:56:11.258Z,19.17
2018-08-28T21:58:39.720Z,12.20
2018-08-28T22:01:10.189Z,20.50
2018-08-28T22:03:39.696Z,16.10
2018-08-28T22:06:13.704Z,16.90
2018-08-28T22:08:42.138Z,21.50
2018-08-28T22:11:10.572Z,20.80
2018-08-28T22:13:39.126Z,12.63
2018-08-28T22:16:07.825Z,13.83
2018-08-28T22:18:36.496Z,15.57
2018-08-28T22:21:05.116Z,25.23
2018-08-28T22:23:33.517Z,15.93
2018-08-28T22:26:01.944Z,11.63
2018-08-28T22:28:31.306Z,13.93
2018-08-28T22:30:59.839Z,12.70
2018-08-28T22:33:28.426Z,16.63
2018-08-28T22:35:57.038Z,15.63
2018-08-28T22:38:26.158Z,11.67
2018-08-28T22:40:54.570Z,13.90
2018-08-28T22:43:24.072Z,11.77
2018-08-28T22:45:52.977Z,15.00
2018-08-28T22:48:21.420Z,20.90
2018-08-28T22:50:49.826Z,13.93
2018-08-28T22:53:18.199Z,17.63
2018-08-28T22:55:46.653Z,18.60
2018-08-28T22:58:15.048Z,10.13
2018-08-28T23:00:43.520Z,19.70
2018-08-28T23:03:11.943Z,17.23
2018-08-28T23:05:40.380Z,11.87
2018-08-28T23:08:08.776Z,14.07
2018-08-28T23:10:37.210Z,14.97
2018-08-28T23:13:05.813Z,14.77
2018-08-28T23:15:34.200Z,17.93
2018-08-28T23:18:02.620Z,12.43
2018-08-28T23:20:31.112Z,12.03
2018-08-28T23:22:59.525Z,14.07
2018-08-28T23:25:27.945Z,12.87
2018-08-28T23:27:56.337Z,12.57
2018-08-28T23:30:24.832Z,12.90
2018-08-28T23:32:53.209Z,10.97
2018-08-28T23:35:21.907Z,19.10
2018-08-28T23:37:50.317Z,14.73
2018-08-28T23:40:18.701Z,15.10
2018-08-28T23:42:47.109Z,13.07
2018-08-28T23:45:15.529Z,14.90
2018-08-28T23:47:43.926Z,11.50
2018-08-28T23:50:12.321Z,13.57
2018-08-28T23:52:41.667Z,14.87
2018-08-28T23:55:10.090Z,12.93
2018-08-28T23:57:38.501Z,15.07
